createdAt,value
2023-01-09T00:01:47.369Z,12.98
2023-01-09T00:04:17.728Z,12.57
2023-01-09T00:06:54.323Z,11.85
2023-01-09T00:09:25.022Z,12.75
2023-01-09T00:11:55.808Z,13.25
2023-01-09T00:14:26.778Z,14.45
2023-01-09T00:16:58.197Z,13.48
2023-01-09T00:19:28.495Z,12.65
2023-01-09T00:22:01.975Z,12.48
2023-01-09T00:24:32.310Z,14.88
2023-01-09T00:27:02.620Z,13.20
2023-01-09T00:29:33.018Z,13.15
2023-01-09T00:32:03.286Z,13.25
2023-01-09T00:34:34.326Z,13.23
2023-01-09T00:37:11.940Z,12.05
2023-01-09T00:39:42.263Z,12.50
2023-01-09T00:42:15.707Z,13.27
2023-01-09T00:44:48.200Z,13.70
2023-01-09T00:47:23.037Z,13.40
2023-01-09T00:49:55.794Z,12.93
2023-01-09T00:52:33.947Z,14.50
2023-01-09T00:55:05.228Z,14.25
2023-01-09T00:57:35.549Z,14.50
2023-01-09T01:00:06.827Z,14.32
2023-01-09T01:02:37.219Z,13.25
2023-01-09T01:05:20.711Z,14.23
2023-01-09T01:07:53.515Z,12.63
2023-01-09T01:10:28.646Z,13.10
2023-01-09T01:12:58.966Z,12.82
2023-01-09T01:15:29.682Z,12.85
2023-01-09T01:18:00.278Z,13.63
2023-01-09T01:20:30.403Z,13.40
2023-01-09T01:23:03.007Z,11.98
2023-01-09T01:25:33.041Z,12.82
2023-01-09T01:28:03.236Z,13.30
2023-01-09T01:30:33.308Z,13.38
2023-01-09T01:33:03.680Z,11.98
2023-01-09T01:35:33.952Z,13.65
2023-01-09T01:38:06.550Z,11.68
2023-01-09T01:40:38.321Z,13.10
2023-01-09T01:43:08.625Z,12.57
2023-01-09T01:45:40.554Z,13.52
2023-01-09T01:48:13.143Z,12.93
2023-01-09T01:50:52.907Z,12.00
2023-01-09T01:53:29.473Z,12.23
2023-01-09T01:56:08.496Z,13.00
2023-01-09T01:58:45.976Z,13.13
2023-01-09T02:01:16.468Z,14.23
2023-01-09T02:03:47.020Z,11.95
2023-01-09T02:06:18.021Z,11.82
2023-01-09T02:08:51.107Z,12.93
2023-01-09T02:11:23.229Z,13.48
2023-01-09T02:13:53.320Z,13.05
2023-01-09T02:16:41.142Z,14.63
2023-01-09T02:19:32.265Z,12.77
2023-01-09T02:22:14.224Z,13.05
2023-01-09T02:25:07.642Z,14.80
2023-01-09T02:28:09.195Z,11.48
2023-01-09T02:30:47.332Z,11.88
2023-01-09T02:33:34.615Z,11.93
2023-01-09T02:36:17.230Z,12.20
2023-01-09T02:39:02.447Z,12.63
2023-01-09T02:41:39.180Z,11.90
2023-01-09T02:44:18.659Z,11.80
2023-01-09T02:47:01.733Z,11.88
2023-01-09T02:49:32.065Z,11.50
2023-01-09T02:52:17.125Z,11.20
2023-01-09T02:54:59.238Z,12.00
2023-01-09T02:57:44.824Z,11.65
2023-01-09T03:00:26.602Z,11.88
2023-01-09T03:03:06.131Z,10.98
2023-01-09T03:05:43.141Z,10.48
2023-01-09T03:08:18.564Z,11.15
2023-01-09T03:10:54.851Z,11.48
2023-01-09T03:13:28.046Z,10.68
2023-01-09T03:16:00.739Z,11.50
2023-01-09T03:18:35.588Z,10.27
2023-01-09T03:21:07.648Z,10.93
2023-01-09T03:23:50.087Z,11.07
2023-01-09T03:26:20.569Z,10.00
2023-01-09T03:28:50.948Z,10.35
2023-01-09T03:31:21.283Z,10.90
2023-01-09T03:33:54.207Z,10.93
2023-01-09T03:36:25.731Z,11.02
2023-01-09T03:38:56.066Z,10.18
2023-01-09T03:41:26.029Z,10.00
2023-01-09T03:43:56.061Z,10.00
2023-01-09T03:46:26.383Z,9.70
2023-01-09T03:48:58.981Z,10.95
2023-01-09T03:51:29.183Z,11.07
2023-01-09T03:53:59.257Z,11.05
2023-01-09T03:56:29.361Z,10.00
2023-01-09T03:58:59.633Z,11.10
2023-01-09T04:01:29.778Z,11.55
2023-01-09T04:04:02.461Z,9.77
2023-01-09T04:06:32.648Z,9.55
2023-01-09T04:09:02.661Z,10.85
2023-01-09T04:11:32.788Z,10.55
2023-01-09T04:14:03.088Z,10.07
2023-01-09T04:16:33.438Z,10.55
2023-01-09T04:19:06.100Z,10.05
2023-01-09T04:21:36.124Z,11.48
2023-01-09T04:24:06.401Z,12.35
2023-01-09T04:26:36.438Z,10.55
2023-01-09T04:29:06.720Z,11.52
2023-01-09T04:31:36.810Z,12.57
2023-01-09T04:34:09.406Z,11.23
2023-01-09T04:36:39.779Z,11.43
2023-01-09T04:39:10.057Z,12.15
2023-01-09T04:41:52.614Z,13.25
2023-01-09T04:44:26.372Z,11.80
2023-01-09T04:46:58.954Z,11.63
2023-01-09T04:49:32.761Z,11.13
2023-01-09T04:52:03.014Z,11.60
2023-01-09T04:54:34.430Z,11.80
2023-01-09T04:57:04.748Z,12.45
2023-01-09T04:59:34.762Z,12.27
2023-01-09T05:02:05.010Z,12.85
2023-01-09T05:04:37.854Z,12.88
2023-01-09T05:07:08.014Z,11.70
2023-01-09T05:09:38.330Z,11.35
2023-01-09T05:12:09.170Z,12.63
2023-01-09T05:14:39.447Z,11.23
2023-01-09T05:17:09.446Z,12.73
2023-01-09T05:19:42.533Z,12.57
2023-01-09T05:22:12.529Z,12.98
2023-01-09T05:24:42.524Z,13.77
2023-01-09T05:27:12.591Z,12.13
2023-01-09T05:29:42.905Z,12.82
2023-01-09T05:32:13.196Z,12.73
2023-01-09T05:34:45.739Z,12.60
2023-01-09T05:37:15.724Z,12.32
2023-01-09T05:39:45.845Z,12.07
2023-01-09T05:44:05.080Z,13.45
2023-01-09T05:46:35.543Z,12.13
2023-01-09T05:49:05.678Z,13.30
2023-01-09T05:51:35.709Z,12.15
2023-01-09T05:54:07.560Z,11.52
2023-01-09T05:56:37.817Z,12.50
2023-01-09T05:59:10.518Z,13.38
2023-01-09T06:01:40.507Z,11.98
2023-01-09T06:04:10.511Z,13.32
2023-01-09T06:06:41.072Z,13.48
2023-01-09T06:09:11.447Z,11.68
2023-01-09T06:11:41.371Z,11.57
2023-01-09T06:14:13.908Z,11.23
2023-01-09T06:16:43.875Z,11.18
2023-01-09T06:19:13.883Z,10.85
2023-01-09T06:21:44.102Z,10.45
2023-01-09T06:24:14.331Z,9.60
2023-01-09T06:26:44.622Z,8.85
2023-01-09T06:29:17.209Z,8.10
2023-01-09T06:31:47.174Z,7.68
2023-01-09T06:34:17.151Z,6.82
2023-01-09T06:36:47.145Z,6.00
2023-01-09T06:39:17.423Z,4.60
2023-01-09T06:41:48.680Z,3.65
2023-01-09T06:44:21.391Z,2.85
2023-01-09T06:46:51.380Z,2.75
2023-01-09T06:49:23.617Z,1.55
2023-01-09T06:51:53.956Z,1.30
2023-01-09T06:54:25.759Z,0.80
2023-01-09T06:56:57.036Z,0.32
2023-01-09T06:59:30.080Z,0.30
2023-01-09T07:02:00.320Z,0.38
2023-01-09T07:04:30.819Z,0.25
2023-01-09T07:07:01.291Z,0.22
2023-01-09T07:09:31.313Z,0.35
2023-01-09T07:12:01.564Z,0.30
2023-01-09T07:14:35.439Z,0.20
2023-01-09T07:17:05.726Z,0.20
2023-01-09T07:19:36.197Z,0.20
2023-01-09T07:22:06.332Z,0.35
2023-01-09T07:24:36.470Z,0.50
2023-01-09T07:27:06.579Z,0.25
2023-01-09T07:29:39.433Z,0.30
2023-01-09T07:32:09.721Z,0.40
2023-01-09T07:34:40.008Z,0.30
2023-01-09T07:37:09.906Z,0.40
2023-01-09T07:39:40.145Z,0.25
2023-01-09T07:42:10.170Z,0.28
2023-01-09T07:44:42.672Z,0.35
2023-01-09T07:47:12.891Z,0.40
2023-01-09T07:49:42.826Z,0.40
2023-01-09T07:52:13.087Z,0.40
2023-01-09T07:54:43.384Z,0.20
2023-01-09T07:57:13.664Z,0.20
2023-01-09T07:59:46.446Z,0.30
2023-01-09T08:02:18.204Z,0.40
2023-01-09T08:04:48.506Z,0.40
2023-01-09T08:07:18.776Z,0.30
2023-01-09T08:09:49.066Z,0.50
2023-01-09T08:12:19.322Z,0.32
2023-01-09T08:14:51.847Z,0.28
2023-01-09T08:17:21.801Z,1.13
2023-01-09T08:19:52.079Z,0.35
2023-01-09T08:22:22.083Z,0.43
2023-01-09T08:24:52.071Z,0.65
2023-01-09T08:27:22.000Z,0.32
2023-01-09T08:29:54.579Z,0.60
2023-01-09T08:32:24.477Z,0.85
2023-01-09T08:34:55.011Z,0.40
2023-01-09T08:37:25.312Z,0.30
2023-01-09T08:39:56.609Z,0.57
2023-01-09T08:42:39.378Z,0.65
2023-01-09T08:45:25.734Z,0.20
2023-01-09T08:47:56.223Z,0.30
2023-01-09T08:50:26.239Z,0.60
2023-01-09T08:52:56.207Z,0.60
2023-01-09T08:55:26.194Z,0.25
2023-01-09T08:57:57.260Z,0.25
2023-01-09T09:00:29.997Z,0.30
2023-01-09T09:03:01.462Z,0.40
2023-01-09T09:05:33.218Z,0.28
2023-01-09T09:08:04.076Z,0.22
2023-01-09T09:10:34.078Z,0.68
2023-01-09T09:13:04.984Z,0.45
2023-01-09T09:15:39.106Z,0.35
2023-01-09T09:18:09.869Z,0.47
2023-01-09T09:20:41.735Z,0.50
2023-01-09T09:23:12.086Z,0.60
2023-01-09T09:25:42.407Z,0.40
2023-01-09T09:28:12.831Z,0.65
2023-01-09T09:30:45.546Z,0.45
2023-01-09T09:33:15.817Z,0.40
2023-01-09T09:35:45.971Z,0.43
2023-01-09T09:38:16.172Z,0.60
2023-01-09T09:41:34.044Z,0.65
2023-01-09T09:44:48.422Z,0.52
2023-01-09T09:47:43.742Z,0.30
2023-01-09T09:50:29.119Z,0.63
2023-01-09T09:53:04.618Z,0.50
2023-01-09T09:55:36.616Z,0.52
2023-01-09T09:58:12.429Z,0.45
2023-01-09T10:00:43.127Z,0.22
2023-01-09T10:03:34.137Z,0.35
2023-01-09T10:06:08.853Z,0.85
2023-01-09T10:11:18.200Z,0.60
2023-01-09T10:14:00.639Z,0.43
2023-01-09T10:16:40.387Z,0.50
2023-01-09T10:19:28.291Z,0.40
2023-01-09T10:22:10.687Z,0.35
2023-01-09T10:24:59.378Z,0.50
2023-01-09T10:27:38.527Z,0.20
2023-01-09T10:30:27.917Z,0.40
2023-01-09T10:33:09.288Z,0.60
2023-01-09T10:35:57.271Z,0.50
2023-01-09T10:38:31.908Z,0.40
2023-01-09T10:41:07.435Z,0.40
2023-01-09T10:43:42.194Z,0.82
2023-01-09T10:46:18.703Z,0.98
2023-01-09T10:48:53.554Z,0.43
2023-01-09T10:51:31.058Z,0.30
2023-01-09T10:54:01.233Z,0.50
2023-01-09T10:56:35.047Z,0.52
2023-01-09T10:59:05.267Z,0.40
2023-01-09T11:01:38.741Z,0.47
2023-01-09T11:04:22.670Z,0.40
2023-01-09T11:06:59.926Z,0.30
2023-01-09T11:09:29.928Z,0.52
2023-01-09T11:11:59.963Z,0.40
2023-01-09T11:14:31.674Z,0.40
2023-01-09T11:17:04.093Z,0.40
2023-01-09T11:19:35.717Z,0.50
2023-01-09T11:22:20.982Z,1.05
2023-01-09T11:25:03.604Z,0.40
2023-01-09T11:27:33.739Z,0.25
2023-01-09T11:30:26.313Z,0.45
2023-01-09T11:32:57.880Z,0.20
2023-01-09T11:35:34.065Z,0.10
2023-01-09T11:38:12.002Z,0.77
2023-01-09T11:40:50.175Z,1.45
2023-01-09T11:43:25.687Z,0.50
2023-01-09T11:46:01.619Z,0.45
2023-01-09T11:48:43.828Z,0.88
2023-01-09T11:51:23.014Z,1.25
2023-01-09T11:54:20.236Z,0.57
2023-01-09T11:56:51.696Z,0.70
2023-01-09T11:59:24.245Z,0.70
2023-01-09T12:02:08.433Z,0.43
2023-01-09T12:04:42.137Z,0.40
2023-01-09T12:07:45.526Z,0.85
2023-01-09T12:10:36.412Z,0.30
2023-01-09T12:13:17.127Z,0.60
2023-01-09T12:15:56.518Z,0.55
2023-01-09T12:18:41.441Z,1.17
2023-01-09T12:21:23.052Z,1.13
2023-01-09T12:24:12.239Z,1.50
2023-01-09T12:26:53.995Z,0.45
2023-01-09T12:29:53.756Z,0.90
2023-01-09T12:32:39.956Z,1.15
2023-01-09T12:35:20.872Z,0.80
2023-01-09T12:38:15.821Z,1.20
2023-01-09T12:41:06.838Z,1.33
2023-01-09T12:43:46.619Z,0.77
2023-01-09T12:46:21.242Z,0.93
2023-01-09T12:49:06.430Z,0.73
2023-01-09T12:51:43.328Z,1.02
2023-01-09T12:54:17.988Z,0.80
2023-01-09T12:56:52.563Z,0.70
2023-01-09T12:59:34.229Z,0.50
2023-01-09T13:02:14.190Z,0.77
2023-01-09T13:04:49.344Z,1.15
2023-01-09T13:07:23.259Z,0.60
2023-01-09T13:09:59.403Z,0.60
2023-01-09T13:12:35.709Z,0.55
2023-01-09T13:15:22.600Z,0.60
2023-01-09T13:17:56.824Z,0.60
2023-01-09T13:20:32.408Z,0.60
2023-01-09T13:23:03.498Z,0.43
2023-01-09T13:25:41.137Z,0.55
2023-01-09T13:28:19.465Z,0.80
2023-01-09T13:31:19.784Z,0.85
2023-01-09T13:33:55.396Z,0.63
2023-01-09T13:36:30.134Z,0.70
2023-01-09T13:39:02.340Z,0.47
2023-01-09T13:41:46.544Z,0.80
2023-01-09T13:44:28.587Z,0.77
2023-01-09T13:47:03.455Z,0.75
2023-01-09T13:49:49.443Z,0.77
2023-01-09T13:52:36.869Z,0.75
2023-01-09T13:55:28.870Z,0.70
2023-01-09T13:58:22.718Z,1.20
2023-01-09T14:00:58.784Z,0.45
2023-01-09T14:03:34.267Z,0.60
2023-01-09T14:06:22.405Z,1.05
2023-01-09T14:09:07.543Z,0.55
2023-01-09T14:11:37.863Z,0.77
2023-01-09T14:14:18.290Z,0.65
2023-01-09T14:16:49.382Z,0.90
2023-01-09T14:19:38.499Z,0.80
2023-01-09T14:22:10.190Z,0.93
2023-01-09T14:24:46.518Z,0.70
2023-01-09T14:27:46.771Z,0.55
2023-01-09T14:30:32.311Z,0.50
2023-01-09T14:33:04.941Z,0.40
2023-01-09T14:35:46.614Z,0.57
2023-01-09T14:38:35.272Z,0.45
2023-01-09T14:41:12.154Z,0.98
2023-01-09T14:43:49.372Z,0.95
2023-01-09T14:46:21.976Z,0.60
2023-01-09T14:49:05.953Z,1.25
2023-01-09T14:51:45.447Z,1.10
2023-01-09T14:54:27.478Z,1.20
2023-01-09T14:56:57.979Z,1.20
2023-01-09T14:59:27.933Z,1.45
2023-01-09T15:02:02.384Z,2.53
2023-01-09T15:04:37.144Z,2.03
2023-01-09T15:07:10.064Z,1.27
2023-01-09T15:09:47.735Z,0.93
2023-01-09T15:12:21.925Z,1.38
2023-01-09T15:14:56.407Z,1.83
2023-01-09T15:17:30.717Z,1.27
2023-01-09T15:20:02.415Z,1.00
2023-01-09T15:22:37.078Z,0.70
2023-01-09T15:25:37.503Z,1.45
2023-01-09T15:28:32.278Z,1.60
2023-01-09T15:31:07.207Z,0.68
2023-01-09T15:33:38.102Z,0.52
2023-01-09T15:36:14.996Z,0.55
2023-01-09T15:38:48.229Z,1.08
2023-01-09T15:41:41.301Z,0.28
2023-01-09T15:44:17.207Z,0.50
2023-01-09T15:46:50.219Z,0.55
2023-01-09T15:49:21.513Z,0.85
2023-01-09T15:51:53.065Z,0.80
2023-01-09T15:54:31.322Z,1.42
2023-01-09T15:57:33.226Z,1.20
2023-01-09T16:00:33.372Z,1.17
2023-01-09T16:03:15.863Z,0.90
2023-01-09T16:05:47.688Z,1.00
2023-01-09T16:08:32.515Z,1.13
2023-01-09T16:11:10.583Z,0.90
2023-01-09T16:13:47.701Z,1.35
2023-01-09T16:16:27.839Z,1.08
2023-01-09T16:18:59.177Z,0.80
2023-01-09T16:21:38.157Z,1.10
2023-01-09T16:24:27.739Z,0.90
2023-01-09T16:27:30.796Z,0.60
2023-01-09T16:30:04.533Z,0.45
2023-01-09T16:32:36.150Z,0.88
2023-01-09T16:35:09.447Z,0.70
2023-01-09T16:37:40.227Z,0.65
2023-01-09T16:40:36.181Z,0.80
2023-01-09T16:43:08.636Z,0.70
2023-01-09T16:45:44.294Z,0.70
2023-01-09T16:48:16.284Z,0.90
2023-01-09T16:50:47.161Z,1.40
2023-01-09T16:53:19.356Z,1.27
2023-01-09T16:55:49.840Z,1.52
2023-01-09T16:58:25.339Z,1.15
2023-01-09T17:00:57.990Z,1.50
2023-01-09T17:03:28.473Z,2.15
2023-01-09T17:06:01.515Z,1.70
2023-01-09T17:08:33.331Z,1.17
2023-01-09T17:11:04.094Z,1.40
2023-01-09T17:13:34.531Z,1.20
2023-01-09T17:16:08.000Z,1.55
2023-01-09T17:18:38.321Z,1.60
2023-01-09T17:21:08.745Z,1.48
2023-01-09T17:23:39.008Z,2.50
2023-01-09T17:26:21.723Z,2.22
2023-01-09T17:28:53.346Z,1.73
2023-01-09T17:31:25.983Z,2.05
2023-01-09T17:33:56.580Z,2.42
2023-01-09T17:36:32.091Z,1.90
2023-01-09T17:39:02.775Z,1.40
2023-01-09T17:41:34.279Z,1.48
2023-01-09T17:44:05.213Z,0.90
2023-01-09T17:46:39.518Z,1.05
2023-01-09T17:49:10.396Z,1.45
2023-01-09T17:51:40.652Z,1.42
2023-01-09T17:54:10.982Z,2.13
2023-01-09T17:56:43.244Z,1.70
2023-01-09T17:59:15.570Z,1.27
2023-01-09T18:01:48.751Z,1.58
2023-01-09T18:04:19.051Z,1.60
2023-01-09T18:06:49.664Z,1.35
2023-01-09T18:09:20.484Z,2.28
2023-01-09T18:11:50.791Z,1.33
2023-01-09T18:14:21.013Z,1.70
2023-01-09T18:16:53.639Z,1.52
2023-01-09T18:19:23.894Z,1.75
2023-01-09T18:21:54.240Z,1.85
2023-01-09T18:24:24.446Z,1.83
2023-01-09T18:26:54.736Z,2.28
2023-01-09T18:29:25.007Z,2.05
2023-01-09T18:31:57.625Z,3.30
2023-01-09T18:34:27.895Z,2.50
2023-01-09T18:36:58.361Z,2.85
2023-01-09T18:39:28.697Z,2.35
2023-01-09T18:41:58.952Z,2.40
2023-01-09T18:44:29.231Z,1.75
2023-01-09T18:47:02.120Z,1.98
2023-01-09T18:49:32.367Z,2.15
2023-01-09T18:52:02.620Z,2.22
2023-01-09T18:54:32.960Z,2.33
2023-01-09T18:57:03.174Z,1.48
2023-01-09T18:59:33.396Z,1.75
2023-01-09T19:02:06.940Z,2.42
2023-01-09T19:04:36.907Z,2.40
2023-01-09T19:07:07.141Z,3.30
2023-01-09T19:09:37.328Z,3.60
2023-01-09T19:12:07.628Z,3.50
2023-01-09T19:14:38.091Z,3.05
2023-01-09T19:17:10.705Z,2.25
2023-01-09T19:19:40.977Z,2.42
2023-01-09T19:22:11.378Z,1.67
2023-01-09T19:24:41.605Z,2.63
2023-01-09T19:27:11.815Z,1.60
2023-01-09T19:29:42.156Z,2.65
2023-01-09T19:32:14.676Z,1.58
2023-01-09T19:34:44.879Z,1.58
2023-01-09T19:37:16.024Z,3.08
2023-01-09T19:39:46.734Z,2.03
2023-01-09T19:42:18.048Z,3.00
2023-01-09T19:44:48.945Z,1.60
2023-01-09T19:47:21.465Z,1.75
2023-01-09T19:49:51.689Z,2.25
2023-01-09T19:52:21.987Z,1.50
2023-01-09T19:54:52.319Z,1.25
2023-01-09T19:57:22.693Z,1.40
2023-01-09T19:59:52.933Z,1.67
2023-01-09T20:02:25.555Z,1.67
2023-01-09T20:04:55.826Z,2.42
2023-01-09T20:07:26.065Z,1.10
2023-01-09T20:09:56.592Z,1.38
2023-01-09T20:12:26.833Z,1.48
2023-01-09T20:14:57.024Z,1.80
2023-01-09T20:17:29.633Z,1.42
2023-01-09T20:20:00.079Z,0.82
2023-01-09T20:22:30.296Z,1.50
2023-01-09T20:25:00.233Z,1.50
2023-01-09T20:27:30.861Z,1.70
2023-01-09T20:30:01.101Z,4.63
2023-01-09T20:32:33.867Z,2.45
2023-01-09T20:35:04.241Z,1.50
2023-01-09T20:37:34.645Z,2.63
2023-01-09T20:40:04.890Z,1.60
2023-01-09T20:42:34.871Z,2.10
2023-01-09T20:45:05.235Z,2.75
2023-01-09T20:47:38.032Z,1.20
2023-01-09T20:50:09.300Z,3.67
2023-01-09T20:52:39.501Z,4.28
2023-01-09T20:55:10.010Z,2.88
2023-01-09T20:57:40.474Z,1.40
2023-01-09T21:00:12.118Z,2.08
2023-01-09T21:02:44.656Z,1.55
2023-01-09T21:05:14.939Z,2.10
2023-01-09T21:07:45.264Z,2.10
2023-01-09T21:10:15.568Z,2.95
2023-01-09T21:12:45.900Z,2.00
2023-01-09T21:15:17.945Z,1.65
2023-01-09T21:17:50.494Z,1.40
2023-01-09T21:20:20.812Z,2.40
2023-01-09T21:22:52.136Z,2.20
2023-01-09T21:25:22.334Z,1.42
2023-01-09T21:27:52.652Z,1.08
2023-01-09T21:30:22.591Z,1.40
2023-01-09T21:32:55.585Z,1.08
2023-01-09T21:35:25.867Z,1.23
2023-01-09T21:37:56.348Z,1.10
2023-01-09T21:40:26.633Z,1.40
2023-01-09T21:43:09.493Z,1.70
2023-01-09T21:45:53.619Z,1.35
2023-01-09T21:48:26.406Z,1.35
2023-01-09T21:50:56.623Z,1.00
2023-01-09T21:53:26.861Z,1.38
2023-01-09T21:55:57.099Z,1.50
2023-01-09T21:58:27.370Z,1.52
2023-01-09T22:01:00.784Z,1.63
2023-01-09T22:03:33.491Z,1.20
2023-01-09T22:06:06.404Z,1.10
2023-01-09T22:08:36.681Z,0.80
2023-01-09T22:11:06.954Z,1.48
2023-01-09T22:13:37.169Z,1.20
2023-01-09T22:16:08.690Z,0.90
2023-01-09T22:18:41.223Z,1.83
2023-01-09T22:21:11.658Z,1.42
2023-01-09T22:23:41.906Z,2.20
2023-01-09T22:26:12.954Z,1.52
2023-01-09T22:28:43.225Z,1.50
2023-01-09T22:31:14.275Z,1.50
2023-01-09T22:33:51.027Z,1.00
2023-01-09T22:36:21.555Z,2.50
2023-01-09T22:38:51.972Z,1.58
2023-01-09T22:41:22.215Z,3.30
2023-01-09T22:43:52.389Z,0.80
2023-01-09T22:46:22.758Z,0.82
2023-01-09T22:48:55.303Z,1.45
2023-01-09T22:51:25.799Z,1.27
2023-01-09T22:53:56.051Z,1.63
2023-01-09T22:56:26.265Z,1.20
2023-01-09T22:58:58.477Z,0.88
2023-01-09T23:01:28.799Z,1.02
2023-01-09T23:04:01.379Z,1.17
2023-01-09T23:06:31.788Z,0.85
2023-01-09T23:09:02.064Z,1.13
2023-01-09T23:11:46.169Z,1.17
2023-01-09T23:14:16.281Z,0.90
2023-01-09T23:16:46.817Z,0.95
2023-01-09T23:19:19.545Z,0.80
2023-01-09T23:21:49.958Z,0.77
2023-01-09T23:24:21.065Z,0.63
2023-01-09T23:26:52.282Z,1.25
2023-01-09T23:29:22.453Z,1.52
2023-01-09T23:31:53.845Z,1.50
2023-01-09T23:34:27.451Z,1.30
2023-01-09T23:36:58.729Z,1.02
2023-01-09T23:39:29.353Z,0.82
2023-01-09T23:42:12.055Z,1.02
2023-01-09T23:44:42.015Z,0.60
2023-01-09T23:47:11.950Z,0.65
2023-01-09T23:49:44.512Z,1.27
2023-01-09T23:52:14.480Z,0.50
2023-01-09T23:54:44.440Z,0.80
2023-01-09T23:57:14.577Z,0.80
2023-01-09T23:59:44.801Z,0.98
